sensor_id;sensor_type;location;lat;lon;timestamp;P1;durP1;ratioP1;P2;durP2;ratioP2
47790;SDS011;33547;49.044;1.156;2023-10-31T00:01:50;10.85;;;5.53;;
47790;SDS011;33547;49.044;1.156;2023-10-31T00:04:15;5.30;;;4.20;;
47790;SDS011;33547;49.044;1.156;2023-10-31T00:06:41;6.78;;;4.35;;
47790;SDS011;33547;49.044;1.156;2023-10-31T00:09:08;9.88;;;4.18;;
47790;SDS011;33547;49.044;1.156;2023-10-31T00:11:35;6.95;;;4.15;;
47790;SDS011;33547;49.044;1.156;2023-10-31T00:14:01;7.18;;;3.53;;
47790;SDS011;33547;49.044;1.156;2023-10-31T00:16:27;8.18;;;4.90;;
47790;SDS011;33547;49.044;1.156;2023-10-31T00:18:53;7.38;;;5.10;;
47790;SDS011;33547;49.044;1.156;2023-10-31T00:21:19;6.68;;;5.18;;
47790;SDS011;33547;49.044;1.156;2023-10-31T00:23:45;7.50;;;4.35;;
47790;SDS011;33547;49.044;1.156;2023-10-31T00:26:11;8.23;;;4.68;;
47790;SDS011;33547;49.044;1.156;2023-10-31T00:28:37;13.00;;;5.45;;
47790;SDS011;33547;49.044;1.156;2023-10-31T00:31:03;9.20;;;4.82;;
47790;SDS011;33547;49.044;1.156;2023-10-31T00:33:39;7.97;;;4.65;;
47790;SDS011;33547;49.044;1.156;2023-10-31T00:36:04;10.18;;;4.88;;
47790;SDS011;33547;49.044;1.156;2023-10-31T00:38:31;6.82;;;4.50;;
47790;SDS011;33547;49.044;1.156;2023-10-31T00:40:56;8.60;;;4.80;;
47790;SDS011;33547;49.044;1.156;2023-10-31T00:43:22;10.23;;;6.03;;
47790;SDS011;33547;49.044;1.156;2023-10-31T00:45:48;8.00;;;6.60;;
47790;SDS011;33547;49.044;1.156;2023-10-31T00:48:13;18.83;;;9.35;;
47790;SDS011;33547;49.044;1.156;2023-10-31T00:50:39;11.88;;;8.38;;
47790;SDS011;33547;49.044;1.156;2023-10-31T00:53:04;10.80;;;8.32;;
47790;SDS011;33547;49.044;1.156;2023-10-31T00:55:31;11.57;;;8.43;;
47790;SDS011;33547;49.044;1.156;2023-10-31T00:57:57;9.57;;;6.63;;
47790;SDS011;33547;49.044;1.156;2023-10-31T01:00:22;11.40;;;6.72;;
47790;SDS011;33547;49.044;1.156;2023-10-31T01:02:48;8.57;;;5.10;;
47790;SDS011;33547;49.044;1.156;2023-10-31T01:05:14;9.93;;;5.78;;
47790;SDS011;33547;49.044;1.156;2023-10-31T01:07:39;10.82;;;5.68;;
47790;SDS011;33547;49.044;1.156;2023-10-31T01:10:05;12.93;;;6.03;;
47790;SDS011;33547;49.044;1.156;2023-10-31T01:12:31;8.55;;;6.57;;
47790;SDS011;33547;49.044;1.156;2023-10-31T01:14:57;11.25;;;8.15;;
47790;SDS011;33547;49.044;1.156;2023-10-31T01:17:23;21.45;;;11.23;;
47790;SDS011;33547;49.044;1.156;2023-10-31T01:19:49;16.75;;;10.75;;
47790;SDS011;33547;49.044;1.156;2023-10-31T01:22:14;13.70;;;9.52;;
47790;SDS011;33547;49.044;1.156;2023-10-31T01:24:40;33.13;;;17.30;;
47790;SDS011;33547;49.044;1.156;2023-10-31T01:27:05;21.15;;;12.50;;
47790;SDS011;33547;49.044;1.156;2023-10-31T01:29:31;28.17;;;16.52;;
47790;SDS011;33547;49.044;1.156;2023-10-31T01:31:57;14.73;;;5.95;;
47790;SDS011;33547;49.044;1.156;2023-10-31T01:34:22;13.70;;;8.57;;
47790;SDS011;33547;49.044;1.156;2023-10-31T01:36:48;10.18;;;4.88;;
47790;SDS011;33547;49.044;1.156;2023-10-31T01:39:14;9.85;;;5.55;;
47790;SDS011;33547;49.044;1.156;2023-10-31T01:41:43;10.73;;;5.22;;
47790;SDS011;33547;49.044;1.156;2023-10-31T01:44:11;6.50;;;4.38;;
47790;SDS011;33547;49.044;1.156;2023-10-31T01:46:37;8.20;;;5.13;;
47790;SDS011;33547;49.044;1.156;2023-10-31T01:49:03;14.05;;;5.13;;
47790;SDS011;33547;49.044;1.156;2023-10-31T01:51:29;10.88;;;4.90;;
47790;SDS011;33547;49.044;1.156;2023-10-31T01:53:55;9.18;;;4.85;;
47790;SDS011;33547;49.044;1.156;2023-10-31T01:56:22;7.72;;;4.50;;
47790;SDS011;33547;49.044;1.156;2023-10-31T01:58:48;10.00;;;4.93;;
47790;SDS011;33547;49.044;1.156;2023-10-31T02:01:15;6.53;;;4.07;;
47790;SDS011;33547;49.044;1.156;2023-10-31T02:03:41;8.02;;;3.80;;
47790;SDS011;33547;49.044;1.156;2023-10-31T02:06:06;7.30;;;3.85;;
47790;SDS011;33547;49.044;1.156;2023-10-31T02:08:32;10.20;;;4.72;;
47790;SDS011;33547;49.044;1.156;2023-10-31T02:10:58;10.43;;;3.83;;
47790;SDS011;33547;49.044;1.156;2023-10-31T02:13:24;6.18;;;3.10;;
47790;SDS011;33547;49.044;1.156;2023-10-31T02:15:50;6.22;;;3.25;;
47790;SDS011;33547;49.044;1.156;2023-10-31T02:18:16;8.80;;;3.78;;
47790;SDS011;33547;49.044;1.156;2023-10-31T02:20:42;6.85;;;3.50;;
47790;SDS011;33547;49.044;1.156;2023-10-31T02:23:08;9.35;;;4.07;;
47790;SDS011;33547;49.044;1.156;2023-10-31T02:25:34;6.72;;;3.60;;
47790;SDS011;33547;49.044;1.156;2023-10-31T02:28:00;10.73;;;3.60;;
47790;SDS011;33547;49.044;1.156;2023-10-31T02:30:26;8.93;;;3.22;;
47790;SDS011;33547;49.044;1.156;2023-10-31T02:32:52;10.65;;;4.28;;
47790;SDS011;33547;49.044;1.156;2023-10-31T02:35:18;11.85;;;4.13;;
47790;SDS011;33547;49.044;1.156;2023-10-31T02:37:44;12.65;;;3.60;;
47790;SDS011;33547;49.044;1.156;2023-10-31T02:40:13;9.82;;;4.03;;
47790;SDS011;33547;49.044;1.156;2023-10-31T02:42:38;12.75;;;4.82;;
47790;SDS011;33547;49.044;1.156;2023-10-31T02:45:04;14.48;;;3.83;;
47790;SDS011;33547;49.044;1.156;2023-10-31T02:47:30;12.40;;;3.85;;
47790;SDS011;33547;49.044;1.156;2023-10-31T02:49:56;10.30;;;3.88;;
47790;SDS011;33547;49.044;1.156;2023-10-31T02:52:22;15.00;;;3.85;;
47790;SDS011;33547;49.044;1.156;2023-10-31T02:54:47;9.20;;;3.65;;
47790;SDS011;33547;49.044;1.156;2023-10-31T02:57:13;13.38;;;3.70;;
47790;SDS011;33547;49.044;1.156;2023-10-31T02:59:39;10.77;;;3.47;;
47790;SDS011;33547;49.044;1.156;2023-10-31T03:02:05;12.30;;;3.55;;
47790;SDS011;33547;49.044;1.156;2023-10-31T03:04:30;13.07;;;3.50;;
47790;SDS011;33547;49.044;1.156;2023-10-31T03:06:56;12.15;;;4.88;;
47790;SDS011;33547;49.044;1.156;2023-10-31T03:09:22;12.10;;;3.58;;
47790;SDS011;33547;49.044;1.156;2023-10-31T03:11:47;12.65;;;3.20;;
47790;SDS011;33547;49.044;1.156;2023-10-31T03:14:13;15.70;;;4.00;;
47790;SDS011;33547;49.044;1.156;2023-10-31T03:16:39;10.13;;;3.15;;
47790;SDS011;33547;49.044;1.156;2023-10-31T03:19:04;14.15;;;3.72;;
47790;SDS011;33547;49.044;1.156;2023-10-31T03:21:30;13.80;;;3.92;;
47790;SDS011;33547;49.044;1.156;2023-10-31T03:23:56;11.60;;;3.63;;
47790;SDS011;33547;49.044;1.156;2023-10-31T03:26:22;13.20;;;3.50;;
47790;SDS011;33547;49.044;1.156;2023-10-31T03:28:48;16.15;;;4.15;;
47790;SDS011;33547;49.044;1.156;2023-10-31T03:31:15;11.35;;;4.13;;
47790;SDS011;33547;49.044;1.156;2023-10-31T03:33:41;11.80;;;3.72;;
47790;SDS011;33547;49.044;1.156;2023-10-31T03:36:07;8.82;;;3.53;;
47790;SDS011;33547;49.044;1.156;2023-10-31T03:38:36;12.25;;;3.92;;
47790;SDS011;33547;49.044;1.156;2023-10-31T03:41:03;12.40;;;3.42;;
47790;SDS011;33547;49.044;1.156;2023-10-31T03:43:28;12.20;;;3.78;;
47790;SDS011;33547;49.044;1.156;2023-10-31T03:45:54;10.13;;;3.63;;
47790;SDS011;33547;49.044;1.156;2023-10-31T03:48:20;13.50;;;4.50;;
47790;SDS011;33547;49.044;1.156;2023-10-31T03:50:49;18.27;;;4.30;;
47790;SDS011;33547;49.044;1.156;2023-10-31T03:53:15;9.60;;;3.20;;
47790;SDS011;33547;49.044;1.156;2023-10-31T03:55:41;11.20;;;3.50;;
47790;SDS011;33547;49.044;1.156;2023-10-31T03:58:07;10.70;;;3.92;;
47790;SDS011;33547;49.044;1.156;2023-10-31T04:00:33;12.65;;;3.65;;
47790;SDS011;33547;49.044;1.156;2023-10-31T04:02:58;14.48;;;4.20;;
47790;SDS011;33547;49.044;1.156;2023-10-31T04:05:24;11.98;;;3.28;;
47790;SDS011;33547;49.044;1.156;2023-10-31T04:07:50;15.23;;;3.70;;
47790;SDS011;33547;49.044;1.156;2023-10-31T04:10:16;11.13;;;3.88;;
47790;SDS011;33547;49.044;1.156;2023-10-31T04:12:43;11.23;;;3.22;;
47790;SDS011;33547;49.044;1.156;2023-10-31T04:15:08;11.68;;;4.00;;
47790;SDS011;33547;49.044;1.156;2023-10-31T04:17:34;13.38;;;3.60;;
47790;SDS011;33547;49.044;1.156;2023-10-31T04:20:01;16.02;;;4.32;;
47790;SDS011;33547;49.044;1.156;2023-10-31T04:22:27;13.90;;;3.40;;
47790;SDS011;33547;49.044;1.156;2023-10-31T04:24:53;12.32;;;3.55;;
47790;SDS011;33547;49.044;1.156;2023-10-31T04:27:18;13.80;;;3.65;;
47790;SDS011;33547;49.044;1.156;2023-10-31T04:29:44;13.05;;;3.88;;
47790;SDS011;33547;49.044;1.156;2023-10-31T04:32:10;10.85;;;3.83;;
47790;SDS011;33547;49.044;1.156;2023-10-31T04:34:36;13.55;;;3.47;;
47790;SDS011;33547;49.044;1.156;2023-10-31T04:37:03;9.85;;;3.53;;
47790;SDS011;33547;49.044;1.156;2023-10-31T04:39:29;16.33;;;3.75;;
47790;SDS011;33547;49.044;1.156;2023-10-31T04:41:54;12.48;;;3.78;;
47790;SDS011;33547;49.044;1.156;2023-10-31T04:44:20;12.70;;;3.70;;
47790;SDS011;33547;49.044;1.156;2023-10-31T04:46:46;11.00;;;3.47;;
47790;SDS011;33547;49.044;1.156;2023-10-31T04:49:12;16.40;;;3.78;;
47790;SDS011;33547;49.044;1.156;2023-10-31T04:51:38;10.48;;;3.47;;
47790;SDS011;33547;49.044;1.156;2023-10-31T04:54:04;18.20;;;3.50;;
47790;SDS011;33547;49.044;1.156;2023-10-31T04:56:30;11.93;;;3.72;;
47790;SDS011;33547;49.044;1.156;2023-10-31T04:58:56;11.50;;;3.03;;
47790;SDS011;33547;49.044;1.156;2023-10-31T05:01:22;16.63;;;3.65;;
47790;SDS011;33547;49.044;1.156;2023-10-31T05:03:49;13.07;;;3.13;;
47790;SDS011;33547;49.044;1.156;2023-10-31T05:06:18;12.70;;;4.03;;
47790;SDS011;33547;49.044;1.156;2023-10-31T05:08:45;12.15;;;2.83;;
47790;SDS011;33547;49.044;1.156;2023-10-31T05:11:11;11.82;;;3.70;;
47790;SDS011;33547;49.044;1.156;2023-10-31T05:13:38;11.48;;;3.45;;
47790;SDS011;33547;49.044;1.156;2023-10-31T05:16:03;13.43;;;3.60;;
47790;SDS011;33547;49.044;1.156;2023-10-31T05:18:29;15.52;;;3.10;;
47790;SDS011;33547;49.044;1.156;2023-10-31T05:20:55;15.18;;;3.20;;
47790;SDS011;33547;49.044;1.156;2023-10-31T05:23:20;11.02;;;3.20;;
47790;SDS011;33547;49.044;1.156;2023-10-31T05:25:46;13.40;;;3.08;;
47790;SDS011;33547;49.044;1.156;2023-10-31T05:28:12;11.73;;;3.28;;
47790;SDS011;33547;49.044;1.156;2023-10-31T05:30:37;9.50;;;2.88;;
47790;SDS011;33547;49.044;1.156;2023-10-31T05:33:03;8.30;;;2.92;;
47790;SDS011;33547;49.044;1.156;2023-10-31T05:35:29;10.57;;;3.22;;
47790;SDS011;33547;49.044;1.156;2023-10-31T05:37:54;8.82;;;3.38;;
47790;SDS011;33547;49.044;1.156;2023-10-31T05:40:20;10.13;;;2.97;;
47790;SDS011;33547;49.044;1.156;2023-10-31T05:42:49;8.73;;;3.05;;
47790;SDS011;33547;49.044;1.156;2023-10-31T05:45:15;9.15;;;3.20;;
47790;SDS011;33547;49.044;1.156;2023-10-31T05:47:41;10.18;;;2.92;;
47790;SDS011;33547;49.044;1.156;2023-10-31T05:50:06;8.15;;;2.65;;
47790;SDS011;33547;49.044;1.156;2023-10-31T05:52:33;8.50;;;2.88;;
47790;SDS011;33547;49.044;1.156;2023-10-31T05:54:58;10.25;;;3.03;;
47790;SDS011;33547;49.044;1.156;2023-10-31T05:57:24;10.32;;;3.13;;
47790;SDS011;33547;49.044;1.156;2023-10-31T05:59:50;9.02;;;2.90;;
47790;SDS011;33547;49.044;1.156;2023-10-31T06:02:15;8.23;;;2.92;;
47790;SDS011;33547;49.044;1.156;2023-10-31T06:04:41;6.85;;;3.05;;
47790;SDS011;33547;49.044;1.156;2023-10-31T06:07:06;11.70;;;3.17;;
47790;SDS011;33547;49.044;1.156;2023-10-31T06:09:32;7.72;;;2.88;;
47790;SDS011;33547;49.044;1.156;2023-10-31T06:12:01;9.23;;;2.60;;
47790;SDS011;33547;49.044;1.156;2023-10-31T06:14:27;9.88;;;3.17;;
47790;SDS011;33547;49.044;1.156;2023-10-31T06:16:52;11.07;;;3.25;;
47790;SDS011;33547;49.044;1.156;2023-10-31T06:19:19;12.80;;;3.28;;
47790;SDS011;33547;49.044;1.156;2023-10-31T06:21:45;10.30;;;2.72;;
47790;SDS011;33547;49.044;1.156;2023-10-31T06:24:11;11.52;;;3.40;;
47790;SDS011;33547;49.044;1.156;2023-10-31T06:26:37;13.45;;;3.22;;
47790;SDS011;33547;49.044;1.156;2023-10-31T06:29:02;10.30;;;3.83;;
47790;SDS011;33547;49.044;1.156;2023-10-31T06:31:28;7.25;;;3.88;;
47790;SDS011;33547;49.044;1.156;2023-10-31T06:33:54;10.88;;;3.78;;
47790;SDS011;33547;49.044;1.156;2023-10-31T06:36:20;10.13;;;3.13;;
47790;SDS011;33547;49.044;1.156;2023-10-31T06:38:45;10.95;;;2.97;;
47790;SDS011;33547;49.044;1.156;2023-10-31T06:41:11;7.60;;;3.08;;
47790;SDS011;33547;49.044;1.156;2023-10-31T06:43:37;7.18;;;2.95;;
47790;SDS011;33547;49.044;1.156;2023-10-31T06:46:02;10.10;;;3.55;;
47790;SDS011;33547;49.044;1.156;2023-10-31T06:48:30;9.73;;;3.67;;
47790;SDS011;33547;49.044;1.156;2023-10-31T06:50:55;12.60;;;4.15;;
47790;SDS011;33547;49.044;1.156;2023-10-31T06:53:21;16.38;;;4.20;;
47790;SDS011;33547;49.044;1.156;2023-10-31T06:55:47;7.97;;;3.08;;
47790;SDS011;33547;49.044;1.156;2023-10-31T06:58:13;9.98;;;3.20;;
47790;SDS011;33547;49.044;1.156;2023-10-31T07:00:39;8.38;;;3.67;;
47790;SDS011;33547;49.044;1.156;2023-10-31T07:03:05;12.02;;;3.63;;
47790;SDS011;33547;49.044;1.156;2023-10-31T07:05:34;12.18;;;4.60;;
47790;SDS011;33547;49.044;1.156;2023-10-31T07:08:01;11.00;;;3.42;;
47790;SDS011;33547;49.044;1.156;2023-10-31T07:10:28;14.48;;;3.78;;
47790;SDS011;33547;49.044;1.156;2023-10-31T07:12:53;8.85;;;3.38;;
47790;SDS011;33547;49.044;1.156;2023-10-31T07:15:19;9.60;;;3.17;;
47790;SDS011;33547;49.044;1.156;2023-10-31T07:17:46;7.07;;;2.72;;
47790;SDS011;33547;49.044;1.156;2023-10-31T07:20:11;10.60;;;3.67;;
47790;SDS011;33547;49.044;1.156;2023-10-31T07:22:37;10.07;;;3.40;;
47790;SDS011;33547;49.044;1.156;2023-10-31T07:25:04;10.18;;;3.33;;
47790;SDS011;33547;49.044;1.156;2023-10-31T07:27:31;7.50;;;3.17;;
47790;SDS011;33547;49.044;1.156;2023-10-31T07:29:56;15.00;;;3.53;;
47790;SDS011;33547;49.044;1.156;2023-10-31T07:32:22;8.38;;;3.30;;
47790;SDS011;33547;49.044;1.156;2023-10-31T07:34:48;11.77;;;3.15;;
47790;SDS011;33547;49.044;1.156;2023-10-31T07:37:13;9.00;;;3.00;;
47790;SDS011;33547;49.044;1.156;2023-10-31T07:39:39;12.73;;;3.22;;
47790;SDS011;33547;49.044;1.156;2023-10-31T07:42:05;7.60;;;2.92;;
47790;SDS011;33547;49.044;1.156;2023-10-31T07:44:31;9.77;;;3.05;;
47790;SDS011;33547;49.044;1.156;2023-10-31T07:46:56;8.43;;;2.55;;
47790;SDS011;33547;49.044;1.156;2023-10-31T07:49:22;8.05;;;2.58;;
47790;SDS011;33547;49.044;1.156;2023-10-31T07:51:48;11.10;;;2.65;;
47790;SDS011;33547;49.044;1.156;2023-10-31T07:54:14;14.13;;;3.53;;
47790;SDS011;33547;49.044;1.156;2023-10-31T07:56:41;8.93;;;2.70;;
47790;SDS011;33547;49.044;1.156;2023-10-31T07:59:07;8.75;;;2.40;;
47790;SDS011;33547;49.044;1.156;2023-10-31T08:01:33;6.80;;;2.45;;
47790;SDS011;33547;49.044;1.156;2023-10-31T08:04:00;7.25;;;2.55;;
47790;SDS011;33547;49.044;1.156;2023-10-31T08:06:25;7.30;;;2.72;;
47790;SDS011;33547;49.044;1.156;2023-10-31T08:08:51;10.10;;;2.30;;
47790;SDS011;33547;49.044;1.156;2023-10-31T08:11:16;12.45;;;2.85;;
47790;SDS011;33547;49.044;1.156;2023-10-31T08:13:42;6.20;;;2.20;;
47790;SDS011;33547;49.044;1.156;2023-10-31T08:16:08;7.72;;;2.30;;
47790;SDS011;33547;49.044;1.156;2023-10-31T08:18:34;7.40;;;2.85;;
47790;SDS011;33547;49.044;1.156;2023-10-31T08:21:00;3.75;;;2.10;;
47790;SDS011;33547;49.044;1.156;2023-10-31T08:23:26;6.22;;;2.28;;
47790;SDS011;33547;49.044;1.156;2023-10-31T08:25:53;5.40;;;2.20;;
47790;SDS011;33547;49.044;1.156;2023-10-31T08:28:18;5.47;;;2.25;;
47790;SDS011;33547;49.044;1.156;2023-10-31T08:30:44;8.57;;;2.30;;
47790;SDS011;33547;49.044;1.156;2023-10-31T08:33:11;4.07;;;1.73;;
47790;SDS011;33547;49.044;1.156;2023-10-31T08:35:36;6.68;;;2.38;;
47790;SDS011;33547;49.044;1.156;2023-10-31T08:38:02;7.95;;;2.03;;
47790;SDS011;33547;49.044;1.156;2023-10-31T08:40:28;7.70;;;2.60;;
47790;SDS011;33547;49.044;1.156;2023-10-31T08:42:54;10.10;;;3.05;;
47790;SDS011;33547;49.044;1.156;2023-10-31T08:45:20;6.05;;;2.17;;
47790;SDS011;33547;49.044;1.156;2023-10-31T08:47:46;6.32;;;2.45;;
47790;SDS011;33547;49.044;1.156;2023-10-31T08:50:12;5.68;;;2.17;;
47790;SDS011;33547;49.044;1.156;2023-10-31T08:52:38;5.07;;;1.90;;
47790;SDS011;33547;49.044;1.156;2023-10-31T08:55:04;6.63;;;2.67;;
47790;SDS011;33547;49.044;1.156;2023-10-31T08:57:31;4.63;;;1.73;;
47790;SDS011;33547;49.044;1.156;2023-10-31T08:59:58;5.38;;;1.73;;
47790;SDS011;33547;49.044;1.156;2023-10-31T09:02:24;3.90;;;1.70;;
47790;SDS011;33547;49.044;1.156;2023-10-31T09:04:50;5.25;;;1.90;;
47790;SDS011;33547;49.044;1.156;2023-10-31T09:07:16;5.00;;;1.40;;
47790;SDS011;33547;49.044;1.156;2023-10-31T09:09:42;6.07;;;2.00;;
47790;SDS011;33547;49.044;1.156;2023-10-31T09:12:07;6.70;;;1.70;;
47790;SDS011;33547;49.044;1.156;2023-10-31T09:14:34;5.13;;;1.50;;
47790;SDS011;33547;49.044;1.156;2023-10-31T09:17:00;3.28;;;1.67;;
47790;SDS011;33547;49.044;1.156;2023-10-31T09:19:26;7.00;;;2.03;;
47790;SDS011;33547;49.044;1.156;2023-10-31T09:21:52;7.97;;;1.90;;
47790;SDS011;33547;49.044;1.156;2023-10-31T09:24:17;4.65;;;1.65;;
47790;SDS011;33547;49.044;1.156;2023-10-31T09:26:43;9.38;;;2.03;;
47790;SDS011;33547;49.044;1.156;2023-10-31T09:29:10;7.07;;;1.70;;
47790;SDS011;33547;49.044;1.156;2023-10-31T09:31:36;8.35;;;2.13;;
47790;SDS011;33547;49.044;1.156;2023-10-31T09:34:02;6.38;;;1.55;;
47790;SDS011;33547;49.044;1.156;2023-10-31T09:36:28;8.80;;;2.13;;
47790;SDS011;33547;49.044;1.156;2023-10-31T09:38:59;5.15;;;1.95;;
47790;SDS011;33547;49.044;1.156;2023-10-31T09:41:25;6.72;;;1.80;;
47790;SDS011;33547;49.044;1.156;2023-10-31T09:43:50;5.80;;;1.83;;
47790;SDS011;33547;49.044;1.156;2023-10-31T09:46:16;7.90;;;1.60;;
47790;SDS011;33547;49.044;1.156;2023-10-31T09:48:43;4.95;;;1.38;;
47790;SDS011;33547;49.044;1.156;2023-10-31T09:51:09;4.07;;;1.58;;
47790;SDS011;33547;49.044;1.156;2023-10-31T09:53:38;8.27;;;2.10;;
47790;SDS011;33547;49.044;1.156;2023-10-31T09:56:04;6.72;;;2.05;;
47790;SDS011;33547;49.044;1.156;2023-10-31T09:58:31;9.00;;;1.70;;
47790;SDS011;33547;49.044;1.156;2023-10-31T10:00:57;4.50;;;1.58;;
47790;SDS011;33547;49.044;1.156;2023-10-31T10:03:23;7.20;;;1.60;;
47790;SDS011;33547;49.044;1.156;2023-10-31T10:05:49;6.20;;;1.52;;
47790;SDS011;33547;49.044;1.156;2023-10-31T10:08:15;11.10;;;2.05;;
47790;SDS011;33547;49.044;1.156;2023-10-31T10:10:41;6.97;;;1.88;;
47790;SDS011;33547;49.044;1.156;2023-10-31T10:13:07;7.40;;;1.90;;
47790;SDS011;33547;49.044;1.156;2023-10-31T10:15:46;7.72;;;2.10;;
47790;SDS011;33547;49.044;1.156;2023-10-31T10:18:32;6.65;;;1.50;;
47790;SDS011;33547;49.044;1.156;2023-10-31T10:21:04;4.43;;;1.40;;
47790;SDS011;33547;49.044;1.156;2023-10-31T10:23:31;8.27;;;1.55;;
47790;SDS011;33547;49.044;1.156;2023-10-31T10:25:58;8.45;;;1.90;;
47790;SDS011;33547;49.044;1.156;2023-10-31T10:28:25;8.18;;;2.13;;
47790;SDS011;33547;49.044;1.156;2023-10-31T10:30:52;7.50;;;1.60;;
47790;SDS011;33547;49.044;1.156;2023-10-31T10:33:18;8.25;;;1.67;;
47790;SDS011;33547;49.044;1.156;2023-10-31T10:35:45;6.50;;;1.75;;
47790;SDS011;33547;49.044;1.156;2023-10-31T10:38:14;7.07;;;1.80;;
47790;SDS011;33547;49.044;1.156;2023-10-31T10:40:42;5.93;;;1.88;;
47790;SDS011;33547;49.044;1.156;2023-10-31T10:43:13;7.15;;;1.83;;
47790;SDS011;33547;49.044;1.156;2023-10-31T10:45:40;9.10;;;2.20;;
47790;SDS011;33547;49.044;1.156;2023-10-31T10:48:12;9.80;;;2.10;;
47790;SDS011;33547;49.044;1.156;2023-10-31T10:50:43;5.28;;;1.45;;
47790;SDS011;33547;49.044;1.156;2023-10-31T10:53:24;7.25;;;2.03;;
47790;SDS011;33547;49.044;1.156;2023-10-31T10:56:02;8.18;;;2.40;;
47790;SDS011;33547;49.044;1.156;2023-10-31T11:03:45;11.02;;;1.80;;
47790;SDS011;33547;49.044;1.156;2023-10-31T11:06:12;7.43;;;2.15;;
47790;SDS011;33547;49.044;1.156;2023-10-31T11:08:39;9.10;;;2.40;;
47790;SDS011;33547;49.044;1.156;2023-10-31T11:11:06;10.30;;;2.15;;
47790;SDS011;33547;49.044;1.156;2023-10-31T11:13:32;11.93;;;2.50;;
47790;SDS011;33547;49.044;1.156;2023-10-31T11:16:02;9.15;;;2.72;;
47790;SDS011;33547;49.044;1.156;2023-10-31T11:18:34;11.68;;;2.25;;
47790;SDS011;33547;49.044;1.156;2023-10-31T11:21:01;7.20;;;1.90;;
47790;SDS011;33547;49.044;1.156;2023-10-31T11:23:27;8.15;;;2.05;;
47790;SDS011;33547;49.044;1.156;2023-10-31T11:25:53;8.60;;;2.25;;
47790;SDS011;33547;49.044;1.156;2023-10-31T11:28:20;7.60;;;2.45;;
47790;SDS011;33547;49.044;1.156;2023-10-31T11:30:49;8.68;;;2.17;;
47790;SDS011;33547;49.044;1.156;2023-10-31T11:33:16;6.50;;;1.90;;
47790;SDS011;33547;49.044;1.156;2023-10-31T11:35:49;6.78;;;1.95;;
47790;SDS011;33547;49.044;1.156;2023-10-31T11:38:30;11.07;;;2.08;;
47790;SDS011;33547;49.044;1.156;2023-10-31T11:40:59;11.02;;;2.40;;
47790;SDS011;33547;49.044;1.156;2023-10-31T11:43:26;11.13;;;2.72;;
47790;SDS011;33547;49.044;1.156;2023-10-31T11:46:17;6.95;;;2.35;;
47790;SDS011;33547;49.044;1.156;2023-10-31T11:48:48;8.07;;;1.98;;
47790;SDS011;33547;49.044;1.156;2023-10-31T11:51:18;10.45;;;2.22;;
47790;SDS011;33547;49.044;1.156;2023-10-31T11:53:44;10.45;;;3.08;;
47790;SDS011;33547;49.044;1.156;2023-10-31T11:56:10;14.35;;;3.90;;
47790;SDS011;33547;49.044;1.156;2023-10-31T11:58:36;10.68;;;3.05;;
47790;SDS011;33547;49.044;1.156;2023-10-31T12:01:03;10.20;;;2.53;;
47790;SDS011;33547;49.044;1.156;2023-10-31T12:03:43;10.82;;;2.90;;
47790;SDS011;33547;49.044;1.156;2023-10-31T12:06:12;8.52;;;2.47;;
47790;SDS011;33547;49.044;1.156;2023-10-31T12:08:39;11.52;;;3.58;;
47790;SDS011;33547;49.044;1.156;2023-10-31T12:13:32;10.55;;;2.90;;
47790;SDS011;33547;49.044;1.156;2023-10-31T12:15:59;10.65;;;2.63;;
47790;SDS011;33547;49.044;1.156;2023-10-31T12:18:26;7.75;;;2.30;;
47790;SDS011;33547;49.044;1.156;2023-10-31T12:20:55;10.23;;;3.17;;
47790;SDS011;33547;49.044;1.156;2023-10-31T12:23:21;11.80;;;2.90;;
47790;SDS011;33547;49.044;1.156;2023-10-31T12:25:47;9.60;;;2.22;;
47790;SDS011;33547;49.044;1.156;2023-10-31T12:28:19;12.63;;;3.05;;
47790;SDS011;33547;49.044;1.156;2023-10-31T12:30:53;9.40;;;2.38;;
47790;SDS011;33547;49.044;1.156;2023-10-31T12:33:19;12.75;;;2.85;;
47790;SDS011;33547;49.044;1.156;2023-10-31T12:35:47;7.53;;;2.30;;
47790;SDS011;33547;49.044;1.156;2023-10-31T12:38:14;9.98;;;2.15;;
47790;SDS011;33547;49.044;1.156;2023-10-31T12:40:40;10.63;;;1.98;;
47790;SDS011;33547;49.044;1.156;2023-10-31T12:43:07;11.32;;;2.17;;
47790;SDS011;33547;49.044;1.156;2023-10-31T12:45:35;8.75;;;2.45;;
47790;SDS011;33547;49.044;1.156;2023-10-31T12:50:28;9.93;;;2.33;;
47790;SDS011;33547;49.044;1.156;2023-10-31T12:52:54;9.05;;;2.40;;
47790;SDS011;33547;49.044;1.156;2023-10-31T12:55:22;10.05;;;2.70;;
47790;SDS011;33547;49.044;1.156;2023-10-31T12:57:50;8.95;;;2.60;;
47790;SDS011;33547;49.044;1.156;2023-10-31T13:00:17;7.90;;;2.15;;
47790;SDS011;33547;49.044;1.156;2023-10-31T13:02:49;10.43;;;2.40;;
47790;SDS011;33547;49.044;1.156;2023-10-31T13:05:16;7.28;;;2.00;;
47790;SDS011;33547;49.044;1.156;2023-10-31T13:07:49;12.90;;;3.22;;
47790;SDS011;33547;49.044;1.156;2023-10-31T13:10:16;7.30;;;2.10;;
47790;SDS011;33547;49.044;1.156;2023-10-31T13:12:44;11.85;;;2.00;;
47790;SDS011;33547;49.044;1.156;2023-10-31T13:15:13;10.65;;;2.40;;
47790;SDS011;33547;49.044;1.156;2023-10-31T13:17:40;10.88;;;2.08;;
47790;SDS011;33547;49.044;1.156;2023-10-31T13:20:08;8.55;;;2.38;;
47790;SDS011;33547;49.044;1.156;2023-10-31T13:22:38;6.28;;;1.77;;
47790;SDS011;33547;49.044;1.156;2023-10-31T13:25:05;7.47;;;2.08;;
47790;SDS011;33547;49.044;1.156;2023-10-31T13:27:35;9.25;;;2.15;;
47790;SDS011;33547;49.044;1.156;2023-10-31T13:30:02;5.20;;;1.95;;
47790;SDS011;33547;49.044;1.156;2023-10-31T13:32:28;8.05;;;2.17;;
47790;SDS011;33547;49.044;1.156;2023-10-31T13:34:54;7.63;;;2.05;;
47790;SDS011;33547;49.044;1.156;2023-10-31T13:37:19;7.80;;;2.33;;
47790;SDS011;33547;49.044;1.156;2023-10-31T13:39:45;8.10;;;1.80;;
47790;SDS011;33547;49.044;1.156;2023-10-31T13:42:11;9.60;;;2.38;;
47790;SDS011;33547;49.044;1.156;2023-10-31T13:44:37;6.75;;;2.00;;
47790;SDS011;33547;49.044;1.156;2023-10-31T13:47:03;6.55;;;1.98;;
47790;SDS011;33547;49.044;1.156;2023-10-31T13:49:29;6.88;;;1.70;;
47790;SDS011;33547;49.044;1.156;2023-10-31T13:51:54;5.15;;;1.73;;
47790;SDS011;33547;49.044;1.156;2023-10-31T13:54:20;5.07;;;1.45;;
47790;SDS011;33547;49.044;1.156;2023-10-31T13:56:46;9.18;;;2.05;;
47790;SDS011;33547;49.044;1.156;2023-10-31T13:59:12;7.25;;;2.40;;
47790;SDS011;33547;49.044;1.156;2023-10-31T14:01:39;11.00;;;2.88;;
47790;SDS011;33547;49.044;1.156;2023-10-31T14:04:06;10.13;;;2.40;;
47790;SDS011;33547;49.044;1.156;2023-10-31T14:06:32;4.97;;;2.13;;
47790;SDS011;33547;49.044;1.156;2023-10-31T14:08:58;7.18;;;2.08;;
47790;SDS011;33547;49.044;1.156;2023-10-31T14:11:26;6.28;;;2.33;;
47790;SDS011;33547;49.044;1.156;2023-10-31T14:13:52;8.45;;;2.13;;
47790;SDS011;33547;49.044;1.156;2023-10-31T14:16:18;4.40;;;2.13;;
47790;SDS011;33547;49.044;1.156;2023-10-31T14:18:44;8.40;;;1.90;;
47790;SDS011;33547;49.044;1.156;2023-10-31T14:21:11;7.93;;;2.13;;
47790;SDS011;33547;49.044;1.156;2023-10-31T14:23:38;10.07;;;2.28;;
47790;SDS011;33547;49.044;1.156;2023-10-31T14:26:03;8.13;;;2.47;;
47790;SDS011;33547;49.044;1.156;2023-10-31T14:28:30;6.70;;;2.00;;
47790;SDS011;33547;49.044;1.156;2023-10-31T14:30:56;13.10;;;2.58;;
47790;SDS011;33547;49.044;1.156;2023-10-31T14:33:22;6.90;;;2.15;;
47790;SDS011;33547;49.044;1.156;2023-10-31T14:35:48;7.72;;;2.17;;
47790;SDS011;33547;49.044;1.156;2023-10-31T14:38:13;8.18;;;2.00;;
47790;SDS011;33547;49.044;1.156;2023-10-31T14:40:40;10.10;;;2.42;;
47790;SDS011;33547;49.044;1.156;2023-10-31T14:43:06;6.55;;;2.15;;
47790;SDS011;33547;49.044;1.156;2023-10-31T14:45:31;7.00;;;2.60;;
47790;SDS011;33547;49.044;1.156;2023-10-31T14:47:57;10.65;;;2.88;;